createdAt,value
2022-09-07T00:02:07.071Z,16.17
2022-09-07T00:06:12.877Z,16.37
2022-09-07T00:10:16.165Z,15.87
2022-09-07T00:14:20.885Z,16.63
2022-09-07T00:18:24.555Z,18.80
2022-09-07T00:22:27.937Z,19.70
2022-09-07T00:26:32.317Z,16.03
2022-09-07T00:30:42.373Z,14.40
2022-09-07T00:34:45.804Z,15.30
2022-09-07T00:38:49.427Z,13.73
2022-09-07T00:42:52.963Z,14.43
2022-09-07T00:46:58.124Z,15.50
2022-09-07T00:51:05.938Z,14.20
2022-09-07T00:55:13.465Z,16.97
2022-09-07T00:59:21.261Z,14.63
2022-09-07T01:03:30.571Z,15.20
2022-09-07T01:07:34.792Z,15.87
2022-09-07T01:11:39.256Z,16.70
2022-09-07T01:16:01.285Z,16.53
2022-09-07T01:20:40.167Z,14.13
2022-09-07T01:24:58.405Z,15.07
2022-09-07T01:29:07.228Z,16.03
2022-09-07T01:33:36.494Z,17.50
2022-09-07T01:37:53.934Z,15.07
2022-09-07T01:42:05.045Z,14.80
2022-09-07T01:46:16.850Z,15.50
2022-09-07T01:50:22.934Z,14.30
2022-09-07T01:54:30.478Z,15.47
2022-09-07T01:58:38.678Z,15.60
2022-09-07T02:02:48.404Z,13.60
2022-09-07T02:06:57.425Z,15.40
2022-09-07T02:11:08.009Z,13.73
2022-09-07T02:15:15.854Z,13.70
2022-09-07T02:19:22.632Z,15.23
2022-09-07T02:23:29.612Z,14.57
2022-09-07T02:27:40.724Z,15.20
2022-09-07T02:31:44.124Z,13.80
2022-09-07T02:35:48.911Z,13.83
2022-09-07T02:39:52.647Z,14.43
2022-09-07T02:43:56.169Z,13.00
2022-09-07T02:48:14.272Z,13.73
2022-09-07T02:52:26.953Z,13.23
2022-09-07T02:56:47.955Z,13.37
2022-09-07T03:00:58.508Z,13.73
2022-09-07T03:05:06.439Z,12.60
2022-09-07T03:09:14.973Z,12.53
2022-09-07T03:13:22.924Z,14.10
2022-09-07T03:17:26.317Z,13.20
2022-09-07T03:21:29.686Z,13.20
2022-09-07T03:25:34.502Z,13.10
2022-09-07T03:29:41.431Z,15.60
2022-09-07T03:33:45.324Z,13.20
2022-09-07T03:37:48.600Z,13.90
2022-09-07T03:41:53.363Z,13.27
2022-09-07T03:46:00.811Z,13.90
2022-09-07T03:50:04.570Z,13.10
2022-09-07T03:54:08.380Z,13.43
2022-09-07T03:58:13.113Z,13.00
2022-09-07T04:02:16.542Z,14.37
2022-09-07T04:06:20.686Z,12.50
2022-09-07T04:10:24.041Z,11.87
2022-09-07T04:14:28.795Z,13.00
2022-09-07T04:18:32.279Z,12.50
2022-09-07T04:22:35.733Z,14.10
2022-09-07T04:26:39.011Z,12.67
2022-09-07T04:30:43.840Z,12.77
2022-09-07T04:34:47.193Z,14.43
2022-09-07T04:38:56.524Z,13.07
2022-09-07T04:43:00.005Z,12.40
2022-09-07T04:47:04.725Z,13.30
2022-09-07T04:51:08.939Z,13.87
2022-09-07T04:55:12.799Z,15.47
2022-09-07T04:59:16.179Z,15.00
2022-09-07T05:03:21.339Z,15.47
2022-09-07T05:07:24.755Z,13.23
2022-09-07T05:11:29.884Z,13.93
2022-09-07T05:15:33.997Z,16.50
2022-09-07T05:19:39.017Z,16.50
2022-09-07T05:23:43.160Z,16.50
2022-09-07T05:27:46.716Z,15.13
2022-09-07T05:31:50.122Z,15.50
2022-09-07T05:35:59.369Z,16.47
2022-09-07T05:40:02.859Z,15.77
2022-09-07T05:48:30.594Z,24.37
2022-09-07T05:52:35.620Z,21.03
2022-09-07T05:56:38.942Z,15.80
2022-09-07T06:00:42.271Z,17.97
2022-09-07T06:04:45.634Z,18.07
2022-09-07T06:08:51.552Z,17.53
2022-09-07T06:12:54.949Z,18.80
2022-09-07T06:16:58.271Z,20.67
2022-09-07T06:21:04.138Z,21.00
2022-09-07T06:25:10.199Z,19.50
2022-09-07T06:29:13.590Z,20.43
2022-09-07T06:33:21.394Z,21.33
2022-09-07T06:37:25.545Z,22.93
2022-09-07T06:45:55.402Z,24.80
2022-09-07T06:49:59.264Z,27.50
2022-09-07T06:58:28.819Z,23.47
2022-09-07T07:02:32.264Z,22.87
2022-09-07T07:06:36.461Z,20.03
2022-09-07T07:10:40.952Z,19.20
2022-09-07T07:14:45.605Z,20.27
2022-09-07T07:18:52.391Z,18.90
2022-09-07T07:22:55.806Z,17.83
2022-09-07T07:26:59.141Z,16.10
2022-09-07T07:31:09.091Z,17.70
2022-09-07T07:35:14.580Z,19.83
2022-09-07T07:43:41.530Z,16.73
2022-09-07T07:47:51.147Z,18.03
2022-09-07T07:56:18.999Z,14.87
2022-09-07T08:00:37.412Z,14.07
2022-09-07T08:04:46.929Z,13.63
2022-09-07T08:08:50.391Z,15.00
2022-09-07T08:12:54.646Z,13.27
2022-09-07T08:16:57.919Z,13.60
2022-09-07T08:21:03.220Z,10.93
2022-09-07T08:25:07.453Z,11.20
2022-09-07T08:29:10.664Z,11.70
2022-09-07T08:33:13.846Z,10.03
2022-09-07T08:37:18.606Z,10.90
2022-09-07T08:41:47.887Z,9.53
2022-09-07T08:45:55.037Z,10.00
2022-09-07T08:50:05.360Z,9.00
2022-09-07T08:54:15.027Z,7.20
2022-09-07T08:58:47.785Z,6.90
2022-09-07T09:02:46.453Z,6.03
2022-09-07T09:07:18.750Z,6.67
2022-09-07T09:11:33.945Z,5.93
2022-09-07T09:15:51.849Z,6.23
2022-09-07T09:20:02.280Z,6.20
2022-09-07T09:24:14.669Z,5.60
2022-09-07T09:28:19.526Z,6.40
2022-09-07T09:32:37.747Z,6.30
2022-09-07T09:36:48.976Z,6.43
2022-09-07T09:40:54.718Z,5.80
2022-09-07T09:45:07.411Z,6.10
2022-09-07T09:49:18.707Z,6.10
2022-09-07T09:53:27.710Z,6.73
2022-09-07T10:06:56.808Z,6.00
2022-09-07T10:11:02.386Z,7.00
2022-09-07T10:15:08.260Z,6.93
2022-09-07T10:19:26.738Z,7.30
2022-09-07T10:23:30.048Z,6.70
2022-09-07T10:27:36.453Z,8.13
2022-09-07T10:31:50.179Z,7.10
2022-09-07T10:36:01.040Z,7.90
2022-09-07T10:40:18.331Z,7.50
2022-09-07T10:44:32.006Z,7.23
2022-09-07T10:48:44.380Z,7.90
2022-09-07T10:52:56.541Z,7.93
2022-09-07T10:57:10.239Z,7.63
2022-09-07T11:01:22.134Z,8.27
2022-09-07T11:05:38.436Z,7.53
2022-09-07T11:09:56.203Z,8.30
2022-09-07T11:14:13.153Z,7.30
2022-09-07T11:18:21.649Z,6.13
2022-09-07T11:22:34.320Z,7.53
2022-09-07T11:26:43.931Z,7.23
2022-09-07T11:30:50.182Z,6.60
2022-09-07T11:34:58.118Z,7.43
2022-09-07T11:39:06.262Z,7.70
2022-09-07T11:43:19.351Z,6.50
2022-09-07T11:47:29.484Z,7.13
2022-09-07T11:51:41.206Z,7.50
2022-09-07T11:55:49.665Z,7.23
2022-09-07T12:00:04.016Z,7.57
2022-09-07T12:04:37.406Z,6.50
2022-09-07T12:08:55.296Z,7.67
2022-09-07T12:13:34.991Z,7.73
2022-09-07T12:18:02.803Z,8.00
2022-09-07T12:22:06.878Z,8.53
2022-09-07T12:26:52.510Z,8.53
2022-09-07T12:31:01.077Z,7.33
2022-09-07T12:35:38.007Z,8.07
2022-09-07T12:39:45.821Z,7.97
2022-09-07T12:44:08.414Z,8.33
2022-09-07T12:48:27.671Z,7.20
2022-09-07T12:52:54.394Z,7.60
2022-09-07T13:01:38.118Z,7.53
2022-09-07T13:05:55.571Z,7.20
2022-09-07T13:10:00.400Z,7.97
2022-09-07T13:14:09.389Z,7.47
2022-09-07T13:18:40.495Z,6.50
2022-09-07T13:22:58.434Z,7.10
2022-09-07T13:27:05.008Z,8.07
2022-09-07T13:31:51.677Z,6.87
2022-09-07T13:35:59.110Z,8.50
2022-09-07T13:40:05.217Z,9.23
2022-09-07T13:44:25.636Z,9.20
2022-09-07T13:48:36.438Z,9.27
2022-09-07T13:52:56.481Z,9.10
2022-09-07T13:57:07.659Z,10.10
2022-09-07T14:01:19.370Z,9.33
2022-09-07T14:05:24.195Z,11.03
2022-09-07T14:09:27.487Z,7.70
2022-09-07T14:13:31.296Z,5.37
2022-09-07T14:17:34.701Z,5.27
2022-09-07T14:21:39.522Z,4.30
2022-09-07T14:30:28.096Z,4.17
2022-09-07T14:34:35.952Z,4.70
2022-09-07T14:43:05.281Z,4.63
2022-09-07T14:47:20.385Z,3.93
2022-09-07T14:51:35.043Z,5.43
2022-09-07T14:55:42.769Z,3.93
2022-09-07T14:59:47.416Z,3.60
2022-09-07T15:03:59.552Z,4.50
2022-09-07T15:08:05.128Z,4.73
2022-09-07T15:12:27.145Z,4.87
2022-09-07T15:16:35.804Z,3.90
2022-09-07T15:20:41.580Z,4.90
2022-09-07T15:24:46.482Z,4.73
2022-09-07T15:33:14.316Z,4.27
2022-09-07T15:41:40.643Z,5.30
2022-09-07T15:45:45.415Z,4.30
2022-09-07T15:49:51.410Z,5.57
2022-09-07T15:58:18.120Z,4.80
2022-09-07T16:06:48.160Z,6.00
2022-09-07T16:10:55.145Z,5.43
2022-09-07T16:14:58.814Z,5.27
2022-09-07T16:19:07.346Z,5.57
2022-09-07T16:23:15.541Z,5.10
2022-09-07T16:27:20.238Z,5.07
2022-09-07T16:31:26.589Z,6.17
2022-09-07T16:35:33.010Z,5.70
2022-09-07T16:39:36.640Z,5.90
2022-09-07T16:43:40.011Z,4.63
2022-09-07T16:47:43.169Z,5.40
2022-09-07T16:51:49.624Z,5.90
2022-09-07T16:55:53.160Z,5.53
2022-09-07T16:59:56.702Z,6.07
2022-09-07T17:04:00.597Z,5.00
2022-09-07T17:08:05.336Z,5.43
2022-09-07T17:12:12.472Z,5.80
2022-09-07T17:16:17.346Z,6.60
2022-09-07T17:20:20.789Z,6.60
2022-09-07T17:24:25.392Z,6.33
2022-09-07T17:28:29.224Z,6.40
2022-09-07T17:32:35.245Z,5.80
2022-09-07T17:36:38.487Z,5.73
2022-09-07T17:40:44.151Z,5.67
2022-09-07T17:44:52.370Z,5.83
2022-09-07T17:48:58.178Z,5.97
2022-09-07T17:53:01.395Z,6.00
2022-09-07T17:57:06.466Z,6.13
2022-09-07T18:01:12.663Z,7.10
2022-09-07T18:05:16.353Z,6.10
2022-09-07T18:09:20.807Z,6.50
2022-09-07T18:13:39.747Z,5.80
2022-09-07T18:17:43.226Z,6.30
2022-09-07T18:21:48.229Z,5.60
2022-09-07T18:25:58.699Z,4.87
2022-09-07T18:30:04.695Z,4.97
2022-09-07T18:34:09.018Z,4.70
2022-09-07T18:38:13.372Z,4.60
2022-09-07T18:42:17.248Z,5.47
2022-09-07T18:46:25.316Z,4.90
2022-09-07T18:50:29.184Z,5.13
2022-09-07T18:54:33.881Z,4.70
2022-09-07T18:58:38.777Z,5.30
2022-09-07T19:02:47.643Z,4.70
2022-09-07T19:06:51.986Z,5.30
2022-09-07T19:10:56.269Z,5.60
2022-09-07T19:14:59.887Z,6.07
2022-09-07T19:19:08.639Z,5.90
2022-09-07T19:23:12.239Z,7.00
2022-09-07T19:27:23.708Z,6.63
2022-09-07T19:31:30.991Z,6.20
2022-09-07T19:35:39.360Z,5.70
2022-09-07T19:39:43.129Z,5.40
2022-09-07T19:43:47.876Z,5.30
2022-09-07T19:47:52.227Z,5.90
2022-09-07T19:51:57.864Z,4.93
2022-09-07T19:56:08.261Z,6.57
2022-09-07T20:00:13.556Z,5.57
2022-09-07T20:04:20.920Z,6.47
2022-09-07T20:08:26.064Z,6.70
2022-09-07T20:12:33.433Z,5.50
2022-09-07T20:16:40.199Z,6.03
2022-09-07T20:20:48.630Z,7.10
2022-09-07T20:24:53.510Z,5.87
2022-09-07T20:29:11.055Z,6.10
2022-09-07T20:33:21.843Z,5.63
2022-09-07T20:37:28.358Z,6.80
2022-09-07T20:41:35.482Z,6.20
2022-09-07T20:45:38.718Z,6.43
2022-09-07T20:49:42.487Z,5.37
2022-09-07T20:53:46.502Z,5.70
2022-09-07T20:57:52.859Z,5.53
2022-09-07T21:01:56.131Z,5.90
2022-09-07T21:06:03.878Z,6.10
2022-09-07T21:10:08.312Z,6.00
2022-09-07T21:14:14.374Z,6.50
2022-09-07T21:18:18.935Z,6.13
2022-09-07T21:22:22.241Z,6.67
2022-09-07T21:26:26.138Z,6.70
2022-09-07T21:30:31.057Z,6.60
2022-09-07T21:34:34.283Z,6.33
2022-09-07T21:38:38.746Z,6.00
2022-09-07T21:42:41.994Z,6.50
2022-09-07T21:46:46.802Z,6.43
2022-09-07T21:50:50.042Z,6.43
2022-09-07T21:54:53.245Z,6.17
2022-09-07T21:58:56.941Z,7.23
2022-09-07T22:03:01.493Z,6.93
2022-09-07T22:07:04.714Z,6.73
2022-09-07T22:11:10.577Z,6.13
2022-09-07T22:15:13.761Z,6.50
2022-09-07T22:19:18.399Z,6.23
2022-09-07T22:23:22.034Z,7.73
2022-09-07T22:27:26.040Z,6.20
2022-09-07T22:31:32.783Z,6.23
2022-09-07T22:35:38.233Z,5.80
2022-09-07T22:39:49.085Z,5.10
2022-09-07T22:43:53.137Z,5.97
2022-09-07T22:47:57.687Z,7.30
2022-09-07T22:52:03.132Z,6.40
2022-09-07T22:56:12.196Z,6.23
2022-09-07T23:00:17.191Z,5.77
2022-09-07T23:04:21.190Z,6.07
2022-09-07T23:08:27.503Z,6.30
2022-09-07T23:12:31.599Z,6.20
2022-09-07T23:16:35.717Z,4.80
2022-09-07T23:20:39.854Z,6.13
2022-09-07T23:24:45.707Z,6.23
2022-09-07T23:28:53.943Z,6.30
2022-09-07T23:32:57.891Z,5.70
2022-09-07T23:37:02.074Z,5.40
2022-09-07T23:41:07.891Z,7.80
2022-09-07T23:45:12.571Z,5.93
2022-09-07T23:49:16.685Z,6.07
2022-09-07T23:53:21.470Z,5.63
2022-09-07T23:57:27.136Z,5.90
